Time;durP1;ratioP1;P1;durP2;ratioP2;P2;SDS_P1;SDS_P2;PMS_P1;PMS_P2;Temp;Humidity;BMP_temperature;BMP_pressure;BME280_temperature;BME280_humidity;BME280_pressure;Samples;Min_cycle;Max_cycle;Signal;HPM_P1;HPM_P2
2021/07/01 00:00:23;;;;;;;1.83;1.73;;;;;;;18.16;59.31;100534.31;6213622;23;20438;-74
2021/07/01 00:02:49;;;;;;;1.75;1.65;;;;;;;18.15;58.97;100533.50;6167952;23;20335;-74
2021/07/01 00:05:15;;;;;;;2.40;2.30;;;;;;;18.16;59.50;100539.84;6218961;23;20009;-74
2021/07/01 00:07:43;;;;;;;1.70;1.70;;;;;;;18.15;59.48;100539.06;6191890;23;20039;-77
2021/07/01 00:10:11;;;;;;;2.13;2.03;;;;;;;18.13;59.29;100535.75;6220574;23;20001;-77
2021/07/01 00:12:37;;;;;;;1.80;1.70;;;;;;;18.15;59.18;100541.81;6218840;23;20658;-77
2021/07/01 00:15:06;;;;;;;2.15;1.95;;;;;;;18.06;59.68;100538.16;6173708;23;20008;-76
2021/07/01 00:17:31;;;;;;;2.10;2.00;;;;;;;18.03;59.71;100544.31;6235516;23;20410;-76
2021/07/01 00:19:57;;;;;;;2.97;2.78;;;;;;;17.96;59.70;100531.75;6237872;23;20019;-76
2021/07/01 00:22:22;;;;;;;4.53;4.32;;;;;;;17.91;60.46;100545.69;6226179;23;20070;-78
2021/07/01 00:24:48;;;;;;;4.32;4.05;;;;;;;17.84;61.12;100545.25;6169354;23;20005;-77
2021/07/01 00:27:13;;;;;;;3.80;3.53;;;;;;;17.74;61.33;100534.44;6168067;23;20054;-78
2021/07/01 00:29:39;;;;;;;2.53;2.42;;;;;;;17.73;61.11;100538.34;6191221;23;20091;-78
2021/07/01 00:32:05;;;;;;;3.58;3.38;;;;;;;17.71;60.98;100540.59;6193468;23;20027;-77
2021/07/01 00:34:32;;;;;;;2.88;2.67;;;;;;;17.67;61.13;100539.56;6169521;23;20008;-78
2021/07/01 00:36:58;;;;;;;2.40;2.30;;;;;;;17.67;61.56;100534.88;6192036;23;20018;-77
2021/07/01 00:39:39;;;;;;;1.80;1.70;;;;;;;17.75;61.01;100541.59;6194111;23;20009;-77
2021/07/01 00:42:05;;;;;;;1.80;1.70;;;;;;;17.74;61.47;100539.97;6191845;23;20005;-79
2021/07/01 00:44:30;;;;;;;1.90;1.80;;;;;;;17.75;61.19;100536.06;6198242;23;20008;-76
2021/07/01 00:46:56;;;;;;;1.75;1.65;;;;;;;17.79;61.57;100537.09;6169449;23;20049;-77
2021/07/01 00:49:28;;;;;;;1.90;1.80;;;;;;;17.80;61.43;100538.75;6221774;23;20091;-77
2021/07/01 00:51:54;;;;;;;1.10;1.10;;;;;;;17.78;61.31;100536.28;6207585;23;20064;-77
2021/07/01 00:54:20;;;;;;;1.48;1.40;;;;;;;17.76;61.50;100532.19;6210608;23;20412;-77
2021/07/01 00:56:46;;;;;;;1.00;1.00;;;;;;;17.84;61.57;100538.91;6232222;23;20008;-77
2021/07/01 00:59:12;;;;;;;1.13;1.13;;;;;;;17.90;61.75;100535.75;6190781;23;20024;-76
2021/07/01 01:01:38;;;;;;;1.30;1.30;;;;;;;17.87;61.60;100528.06;6196756;23;20004;-78
2021/07/01 01:04:04;;;;;;;1.13;1.13;;;;;;;17.92;61.67;100530.72;6193490;23;20376;-76
2021/07/01 01:06:30;;;;;;;1.98;1.88;;;;;;;17.87;61.47;100525.28;6194325;23;20001;-75
2021/07/01 01:08:57;;;;;;;2.92;2.80;;;;;;;17.82;62.04;100522.63;6191769;23;20001;-76
2021/07/01 01:11:24;;;;;;;2.88;2.67;;;;;;;17.82;62.19;100525.41;6169405;23;20063;-76
2021/07/01 01:13:54;;;;;;;1.95;1.85;;;;;;;17.77;62.15;100528.28;6193405;23;20009;-78
2021/07/01 01:16:20;;;;;;;2.60;2.42;;;;;;;17.79;62.24;100528.78;6195183;23;20001;-76
2021/07/01 01:18:46;;;;;;;3.58;3.38;;;;;;;17.71;62.71;100527.59;6194067;23;20331;-75
2021/07/01 01:21:14;;;;;;;4.63;4.43;;;;;;;17.77;62.93;100531.88;6167119;23;20001;-75
2021/07/01 01:23:40;;;;;;;4.22;3.92;;;;;;;17.76;63.06;100532.19;6190707;23;20440;-73
2021/07/01 01:26:06;;;;;;;3.92;3.70;;;;;;;17.75;62.90;100528.59;6167564;23;20447;-75
2021/07/01 01:28:31;;;;;;;4.07;3.88;;;;;;;17.72;63.17;100533.94;6191081;23;20008;-75
2021/07/01 01:30:57;;;;;;;3.47;3.28;;;;;;;17.63;63.23;100523.59;6194172;23;20035;-74
2021/07/01 01:33:25;;;;;;;2.33;2.22;;;;;;;17.61;63.07;100525.88;6193398;23;20005;-75
2021/07/01 01:35:51;;;;;;;1.90;1.80;;;;;;;17.61;63.40;100525.88;6165260;23;20016;-74
2021/07/01 01:38:17;;;;;;;1.63;1.52;;;;;;;17.59;63.07;100517.06;6190985;23;20009;-75
2021/07/01 01:40:47;;;;;;;1.23;1.23;;;;;;;17.60;63.19;100528.94;6192817;23;20833;-75
2021/07/01 01:43:13;;;;;;;1.15;1.15;;;;;;;17.59;62.97;100528.13;6193762;23;20012;-75
2021/07/01 01:45:40;;;;;;;0.70;0.70;;;;;;;17.61;63.19;100530.59;6189437;23;20013;-74
2021/07/01 01:48:06;;;;;;;1.42;1.08;;;;;;;17.65;62.93;100531.59;6166672;23;20009;-75
2021/07/01 01:50:33;;;;;;;1.77;1.67;;;;;;;17.65;62.65;100525.25;6167312;23;20005;-76
2021/07/01 01:53:02;;;;;;;1.00;1.00;;;;;;;17.66;62.53;100516.63;6193994;23;20438;-75
2021/07/01 01:55:28;;;;;;;0.75;0.75;;;;;;;17.69;62.54;100515.22;6192217;23;20009;-76
2021/07/01 01:57:54;;;;;;;0.90;0.90;;;;;;;17.74;62.10;100528.91;6203488;23;20016;-76
2021/07/01 02:00:21;;;;;;;0.90;0.85;;;;;;;17.75;62.15;100531.34;6196772;23;20087;-77
2021/07/01 02:02:48;;;;;;;0.98;0.98;;;;;;;17.74;62.30;100537.19;6199339;23;20020;-77
2021/07/01 02:05:14;;;;;;;1.35;1.35;;;;;;;17.77;61.96;100539.34;6197413;23;20008;-77
2021/07/01 02:07:40;;;;;;;1.92;1.83;;;;;;;17.69;62.04;100532.59;6198713;23;20011;-76
2021/07/01 02:10:11;;;;;;;4.35;1.90;;;;;;;17.73;61.99;100549.41;6197864;23;20035;-75
2021/07/01 02:12:37;;;;;;;1.23;1.23;;;;;;;17.68;62.23;100539.25;6196683;23;20086;-76
2021/07/01 02:15:05;;;;;;;1.48;1.40;;;;;;;17.70;62.41;100544.50;6195967;23;20004;-77
2021/07/01 02:17:33;;;;;;;0.85;0.85;;;;;;;17.65;62.14;100547.38;6197990;23;20042;-77
2021/07/01 02:19:59;;;;;;;1.10;1.10;;;;;;;17.56;62.19;100541.75;6204078;23;20008;-76
2021/07/01 02:22:24;;;;;;;0.80;0.80;;;;;;;17.59;62.42;100550.22;6211665;23;20003;-76
2021/07/01 02:24:49;;;;;;;0.98;0.98;;;;;;;17.57;62.40;100543.41;6229143;23;20332;-76
2021/07/01 02:27:15;;;;;;;0.75;0.75;;;;;;;17.52;61.82;100536.03;6199650;23;20032;-76
2021/07/01 02:29:40;;;;;;;0.88;0.88;;;;;;;17.54;62.11;100535.72;6199166;23;20312;-76
2021/07/01 02:32:07;;;;;;;0.73;0.73;;;;;;;17.51;62.56;100537.16;6233772;23;20000;-76
2021/07/01 02:34:32;;;;;;;0.75;0.75;;;;;;;17.55;62.52;100543.72;6208006;23;20008;-73
2021/07/01 02:36:58;;;;;;;0.90;0.90;;;;;;;17.48;62.33;100537.78;6234521;23;20365;-79
2021/07/01 02:39:23;;;;;;;1.15;1.02;;;;;;;17.45;62.61;100528.16;6211097;23;20036;-78
2021/07/01 02:41:49;;;;;;;0.80;0.80;;;;;;;17.42;62.57;100525.19;6233057;23;20000;-77
2021/07/01 02:44:15;;;;;;;0.80;0.80;;;;;;;17.42;62.43;100523.25;6195690;23;20012;-79
2021/07/01 02:46:41;;;;;;;0.50;0.50;;;;;;;17.34;62.65;100510.16;6198981;23;20042;-79
2021/07/01 02:49:06;;;;;;;0.43;0.43;;;;;;;17.37;62.29;100515.06;6226231;23;20004;-78
2021/07/01 02:51:34;;;;;;;1.02;1.02;;;;;;;17.45;62.42;100528.16;6172183;23;20035;-79
2021/07/01 02:53:59;;;;;;;0.75;0.60;;;;;;;17.41;62.03;100520.81;6225763;23;20005;-78
2021/07/01 02:56:40;;;;;;;1.10;1.10;;;;;;;17.41;62.24;100520.81;6223751;23;20068;-78
2021/07/01 02:59:07;;;;;;;2.20;1.52;;;;;;;17.44;62.40;100531.22;6174733;23;20035;-77
2021/07/01 03:01:32;;;;;;;1.48;1.38;;;;;;;17.42;62.74;100516.88;6187907;23;20016;-76
2021/07/01 03:03:58;;;;;;;1.30;1.30;;;;;;;17.48;62.05;100531.41;6224571;23;20004;-76
2021/07/01 03:06:23;;;;;;;0.88;0.88;;;;;;;17.45;63.08;100536.44;6174285;23;20016;-77
2021/07/01 03:09:34;;;;;;;1.33;1.25;;;;;;;17.34;62.60;100523.16;6228240;23;20069;-77
2021/07/01 03:12:00;;;;;;;1.38;1.38;;;;;;;17.25;62.67;100523.06;6233472;23;20004;-76
2021/07/01 03:14:25;;;;;;;1.35;1.30;;;;;;;17.18;62.68;100520.72;6202534;23;20001;-76
2021/07/01 03:16:51;;;;;;;1.52;1.42;;;;;;;17.22;62.72;100516.22;6197104;23;20028;-76
2021/07/01 03:19:16;;;;;;;2.05;1.95;;;;;;;17.19;62.92;100519.59;6226071;23;20419;-77
2021/07/01 03:21:46;;;;;;;1.65;1.65;;;;;;;17.18;62.68;100528.19;6227478;23;20412;-77
2021/07/01 03:24:11;;;;;;;1.23;1.23;;;;;;;17.16;62.83;100531.25;6171623;23;20008;-76
2021/07/01 03:26:37;;;;;;;0.80;0.80;;;;;;;17.16;62.72;100536.78;6199104;23;20023;-77
2021/07/01 03:29:02;;;;;;;1.20;1.20;;;;;;;17.14;62.64;100533.50;6223682;23;20009;-77
2021/07/01 03:31:28;;;;;;;1.17;1.17;;;;;;;17.12;62.61;100535.75;6173553;23;20379;-76
2021/07/01 03:33:53;;;;;;;2.10;2.00;;;;;;;17.10;62.43;100538.03;6219056;23;20005;-77
2021/07/01 03:36:19;;;;;;;2.45;2.35;;;;;;;17.10;62.85;100532.50;6198429;23;20080;-74
2021/07/01 03:38:45;;;;;;;2.10;2.00;;;;;;;17.06;62.97;100537.81;6221770;23;20009;-76
2021/07/01 03:41:10;;;;;;;2.17;1.98;;;;;;;17.05;62.98;100538.94;6197494;23;20375;-76
2021/07/01 03:43:41;;;;;;;2.05;1.95;;;;;;;17.01;62.91;100537.09;6169051;23;20013;-76
2021/07/01 03:46:07;;;;;;;1.58;1.48;;;;;;;16.98;62.97;100529.41;6145580;23;20035;-76
2021/07/01 03:48:33;;;;;;;1.35;1.35;;;;;;;16.98;63.04;100534.94;6229897;23;20043;-76
2021/07/01 03:50:58;;;;;;;1.85;1.75;;;;;;;16.87;63.05;100518.56;6159193;23;20068;-75
2021/07/01 03:53:24;;;;;;;2.00;1.88;;;;;;;16.90;62.80;100526.25;6238238;23;20024;-77
2021/07/01 03:55:49;;;;;;;1.58;1.55;;;;;;;16.84;63.03;100530.19;6225659;23;20009;-77
2021/07/01 03:58:15;;;;;;;1.25;1.17;;;;;;;16.79;63.35;100521.19;6198216;23;20017;-76
2021/07/01 04:00:41;;;;;;;1.25;1.25;;;;;;;16.73;63.13;100526.00;6224118;23;20087;-75
2021/07/01 04:03:07;;;;;;;0.73;0.73;;;;;;;16.71;63.43;100519.97;6199564;23;20079;-77
2021/07/01 04:05:32;;;;;;;1.10;0.98;;;;;;;16.67;63.26;100521.69;6224154;23;20001;-77
2021/07/01 04:07:57;;;;;;;0.75;0.75;;;;;;;16.63;63.78;100523.41;6200138;23;20072;-78
2021/07/01 04:10:23;;;;;;;0.98;0.70;;;;;;;16.56;63.78;100519.13;6199020;23;20015;-75
2021/07/01 04:12:48;;;;;;;1.35;1.35;;;;;;;16.59;63.85;100523.22;6226072;23;20427;-76
2021/07/01 04:15:14;;;;;;;1.50;1.40;;;;;;;16.52;64.05;100509.81;6227473;23;20007;-77
2021/07/01 04:17:40;;;;;;;1.33;1.33;;;;;;;16.56;64.15;100507.28;6232206;23;20004;-78
2021/07/01 04:20:07;;;;;;;3.35;3.20;;;;;;;16.46;64.48;100496.41;6209942;23;19999;-77
2021/07/01 04:22:33;;;;;;;2.78;2.67;;;;;;;16.61;64.53;100514.63;6233707;23;20028;-78
2021/07/01 04:24:58;;;;;;;2.95;2.85;;;;;;;16.57;64.38;100514.41;6186240;23;20023;-78
2021/07/01 04:27:24;;;;;;;3.70;3.60;;;;;;;16.57;64.50;100520.78;6205111;23;20012;-77
2021/07/01 04:29:49;;;;;;;2.20;2.10;;;;;;;16.46;64.37;100513.78;6225785;23;20004;-78
2021/07/01 04:32:15;;;;;;;1.73;1.67;;;;;;;16.45;64.24;100500.28;6200779;23;20009;-78
2021/07/01 04:34:40;;;;;;;1.25;1.23;;;;;;;16.58;64.23;100527.09;6226050;23;20027;-78
2021/07/01 04:37:06;;;;;;;1.52;1.42;;;;;;;16.62;64.25;100521.78;6225852;23;20422;-77
2021/07/01 04:39:32;;;;;;;1.27;1.27;;;;;;;16.67;63.96;100524.47;6224778;23;20024;-77
2021/07/01 04:41:59;;;;;;;0.93;0.93;;;;;;;16.71;64.27;100526.28;6223703;23;20019;-78
2021/07/01 04:44:25;;;;;;;1.10;1.08;;;;;;;16.76;63.94;100530.91;6198285;23;20029;-77
2021/07/01 04:46:51;;;;;;;1.48;1.38;;;;;;;16.70;63.86;100524.66;6222412;23;20466;-77
2021/07/01 04:49:16;;;;;;;2.13;2.03;;;;;;;16.81;63.50;100536.34;6174054;23;20009;-76
2021/07/01 04:51:42;;;;;;;1.33;1.33;;;;;;;16.82;63.79;100543.50;6225453;23;20071;-77
2021/07/01 04:54:08;;;;;;;1.33;1.33;;;;;;;16.86;63.84;100536.22;6222365;23;20004;-77
2021/07/01 04:56:46;;;;;;;1.50;1.40;;;;;;;16.89;63.63;100543.97;6197990;23;20044;-77
2021/07/01 04:59:20;;;;;;;1.10;1.10;;;;;;;16.90;63.83;100545.56;6170461;23;20032;-76
2021/07/01 05:01:46;;;;;;;3.50;3.33;;;;;;;16.87;63.87;100548.94;6193228;23;20054;-77
2021/07/01 05:04:13;;;;;;;5.28;4.80;;;;;;;16.83;64.19;100544.31;6195655;23;20029;-77
2021/07/01 05:06:40;;;;;;;6.65;6.07;;;;;;;16.79;64.21;100544.09;6143709;23;20037;-76
2021/07/01 05:09:07;;;;;;;6.63;6.13;;;;;;;16.74;64.35;100544.22;6193893;23;20004;-77
2021/07/01 05:11:34;;;;;;;5.70;5.30;;;;;;;16.57;64.61;100526.28;6188887;23;20012;-78
2021/07/01 05:14:00;;;;;;;5.43;5.03;;;;;;;16.63;64.73;100542.75;6170670;23;20012;-78
2021/07/01 05:16:28;;;;;;;6.85;5.97;;;;;;;16.63;65.07;100545.50;6187408;23;20013;-74
2021/07/01 05:18:55;;;;;;;7.70;7.07;;;;;;;16.54;65.42;100537.94;6192823;23;20009;-74
2021/07/01 05:21:20;;;;;;;7.75;7.05;;;;;;;16.58;65.36;100547.22;6189899;23;20028;-74
2021/07/01 05:23:46;;;;;;;6.93;6.43;;;;;;;16.59;65.66;100545.31;6192587;23;20412;-74
2021/07/01 05:26:11;;;;;;;5.95;5.53;;;;;;;16.61;65.59;100547.75;6142055;23;20079;-74
2021/07/01 05:28:37;;;;;;;5.72;5.38;;;;;;;16.60;65.96;100537.84;6194551;23;20009;-77
2021/07/01 05:31:02;;;;;;;6.78;5.53;;;;;;;16.64;65.93;100538.88;6194864;23;20013;-78
2021/07/01 05:33:28;;;;;;;6.00;5.70;;;;;;;16.64;65.94;100544.41;6144260;23;20384;-78
2021/07/01 05:35:53;;;;;;;8.13;7.07;;;;;;;16.66;66.20;100547.66;6203746;23;20017;-76
2021/07/01 05:38:19;;;;;;;7.70;7.00;;;;;;;16.66;66.65;100548.50;6207411;23;20032;-75
2021/07/01 05:40:44;;;;;;;6.72;6.32;;;;;;;16.67;66.51;100546.53;6200814;23;20016;-76
2021/07/01 05:43:10;;;;;;;6.07;5.78;;;;;;;16.69;66.77;100547.03;6187574;23;20088;-77
2021/07/01 05:45:35;;;;;;;6.18;5.88;;;;;;;16.74;66.71;100553.28;6193297;23;20012;-76
2021/07/01 05:48:01;;;;;;;7.50;7.00;;;;;;;16.76;66.69;100550.22;6162014;23;20016;-76
2021/07/01 05:50:26;;;;;;;8.27;7.50;;;;;;;16.77;66.80;100551.88;6194925;23;20013;-77
2021/07/01 05:53:00;;;;;;;7.38;6.78;;;;;;;16.82;66.91;100549.03;6194198;23;20347;-76
2021/07/01 05:55:25;;;;;;;7.13;6.65;;;;;;;16.88;66.77;100547.00;6194423;23;20075;-78
2021/07/01 05:57:51;;;;;;;7.88;7.28;;;;;;;16.97;66.97;100555.41;6174371;23;20024;-79
2021/07/01 06:00:18;;;;;;;8.00;7.35;;;;;;;17.04;67.10;100551.13;6222609;23;20014;-79
2021/07/01 06:02:46;;;;;;;9.07;8.38;;;;;;;17.08;66.79;100551.31;6223721;23;20000;-79
2021/07/01 06:05:12;;;;;;;6.47;6.07;;;;;;;17.18;66.81;100556.63;6148697;23;20427;-80
2021/07/01 06:07:42;;;;;;;7.85;7.28;;;;;;;17.31;66.45;100554.19;6197510;23;20091;-78
2021/07/01 06:10:12;;;;;;;12.40;9.50;;;;;;;17.34;67.06;100548.03;6222753;23;20061;-78
2021/07/01 06:12:38;;;;;;;10.80;9.80;;;;;;;17.42;67.17;100561.13;6218272;23;20000;-78
2021/07/01 06:15:07;;;;;;;10.52;9.60;;;;;;;17.50;67.36;100557.63;6192006;23;20066;-74
2021/07/01 06:17:36;;;;;;;10.40;9.40;;;;;;;17.58;66.92;100554.16;6189917;23;20016;-73
2021/07/01 06:20:11;;;;;;;10.90;9.23;;;;;;;17.60;67.19;100557.41;6214566;23;20004;-74
2021/07/01 06:22:37;;;;;;;10.55;9.52;;;;;;;17.74;67.17;100567.63;6218994;23;20063;-74
2021/07/01 06:25:03;;;;;;;11.45;10.32;;;;;;;17.85;67.09;100574.56;6193769;23;20001;-74
2021/07/01 06:27:39;;;;;;;13.38;10.55;;;;;;;17.98;66.84;100561.06;6218797;23;20011;-73
2021/07/01 06:30:15;;;;;;;11.80;10.57;;;;;;;18.07;66.53;100562.72;6214903;23;20100;-72
2021/07/01 06:32:45;;;;;;;8.88;8.10;;;;;;;18.16;66.98;100557.28;6214581;23;20004;-71
2021/07/01 06:35:16;;;;;;;12.02;10.82;;;;;;;18.26;66.45;100561.75;6215625;23;20082;-74
2021/07/01 06:37:44;;;;;;;11.18;9.85;;;;;;;18.26;66.40;100554.25;6216606;23;20008;-73
2021/07/01 06:40:11;;;;;;;12.70;10.88;;;;;;;18.40;65.96;100564.44;6189703;23;20379;-74
2021/07/01 06:43:01;;;;;;;11.10;8.20;;;;;;;18.59;66.39;100573.38;6164398;23;20424;-73
2021/07/01 06:45:27;;;;;;;9.48;8.70;;;;;;;18.70;66.03;100571.13;6200428;23;20051;-81
2021/07/01 06:48:05;;;;;;;9.25;8.52;;;;;;;18.90;66.21;100577.31;6223447;23;20012;-77
2021/07/01 06:50:41;;;;;;;;;;;;;;;;;;;;;
2021/07/01 06:53:12;;;;;;;7.35;6.72;;;;;;;19.19;65.49;100551.84;6239404;23;20000;-76
2021/07/01 06:55:38;;;;;;;8.20;7.65;;;;;;;19.52;65.17;100577.22;6241454;23;19997;-77
2021/07/01 06:58:05;;;;;;;7.45;6.95;;;;;;;19.58;64.85;100566.78;6239629;23;20041;-75
2021/07/01 07:00:34;;;;;;;5.40;5.10;;;;;;;19.82;64.42;100579.41;6236617;23;19996;-78
2021/07/01 07:03:02;;;;;;;4.35;4.00;;;;;;;20.16;63.98;100586.09;6182946;23;20043;-75
2021/07/01 07:05:27;;;;;;;5.35;4.95;;;;;;;20.45;63.79;100581.84;6227027;23;20003;-72
2021/07/01 07:07:54;;;;;;;8.07;7.47;;;;;;;20.65;62.77;100580.34;6192942;23;20217;-74
2021/07/01 07:10:39;;;;;;;;;;;;;;;;;;;;;
2021/07/01 07:13:07;;;;;;;5.60;5.20;;;;;;;21.06;62.19;100567.81;6227304;23;20392;-79
2021/07/01 07:15:53;;;;;;;10.88;7.75;;;;;;;21.38;61.02;100579.44;6230782;23;20060;-78
2021/07/01 07:18:28;;;;;;;14.35;10.88;;;;;;;21.50;59.95;100589.84;6198862;23;20083;-77
2021/07/01 07:20:57;;;;;;;14.50;11.43;;;;;;;21.34;59.63;100572.91;6167963;23;20374;-77
2021/07/01 07:23:38;;;;;;;12.20;10.70;;;;;;;21.36;59.59;100588.09;6226096;23;20011;-76
2021/07/01 07:26:13;;;;;;;15.32;13.23;;;;;;;21.15;59.66;100559.41;6199974;23;20028;-77
2021/07/01 07:28:44;;;;;;;14.18;11.15;;;;;;;21.25;59.66;100578.50;6192217;23;20296;-78
2021/07/01 07:31:17;;;;;;;10.35;9.35;;;;;;;21.34;59.85;100582.06;6221090;23;20091;-77
2021/07/01 07:33:46;;;;;;;13.93;10.60;;;;;;;21.61;59.44;100593.88;6198601;23;20055;-77
2021/07/01 07:36:12;;;;;;;11.60;10.50;;;;;;;21.71;58.77;100595.44;6222280;23;20000;-76
2021/07/01 07:38:40;;;;;;;6.30;5.90;;;;;;;21.68;58.54;100587.78;6199559;23;20056;-77
2021/07/01 07:48:30;;;;;;;;;;;;;;;;;;;;;
2021/07/01 07:51:47;;;;;;;;;;;;;;;;;;;;;
2021/07/01 08:11:59;;;;;;;14.13;11.20;;;;;;;20.86;60.93;100597.94;5999077;23;20034;-77
2021/07/01 08:14:28;;;;;;;15.02;9.40;;;;;;;21.11;60.91;100603.75;6044836;23;20042;-76
2021/07/01 08:17:32;;;;;;;14.38;9.02;;;;;;;21.58;60.19;100605.66;6072395;23;20011;-77
2021/07/01 08:20:23;;;;;;;9.43;8.40;;;;;;;21.76;59.61;100601.63;6101030;23;20046;-76
2021/07/01 08:22:51;;;;;;;9.98;8.95;;;;;;;22.01;58.65;100607.34;6173444;23;20028;-76
2021/07/01 08:25:18;;;;;;;7.45;6.95;;;;;;;22.07;58.56;100600.41;6167703;23;20036;-77
2021/07/01 08:27:46;;;;;;;13.40;11.93;;;;;;;22.24;57.60;100613.41;6169403;23;20098;-77
2021/07/01 08:30:14;;;;;;;12.93;9.02;;;;;;;22.18;56.94;100594.44;6169460;23;20088;-77
2021/07/01 08:32:40;;;;;;;8.90;8.07;;;;;;;22.35;57.11;100604.66;6196109;23;20013;-76
2021/07/01 08:35:10;;;;;;;11.23;10.20;;;;;;;22.41;56.92;100609.66;6142574;23;20071;-75
2021/07/01 08:37:35;;;;;;;10.27;9.43;;;;;;;22.43;56.51;100606.56;6193845;23;20012;-74
2021/07/01 08:40:09;;;;;;;7.38;6.88;;;;;;;22.58;56.85;100607.88;6192634;23;20013;-75
2021/07/01 08:42:37;;;;;;;9.73;8.30;;;;;;;22.80;56.17;100610.25;6195873;23;20017;-75
2021/07/01 08:45:14;;;;;;;4.57;4.25;;;;;;;23.17;56.60;100606.75;6167020;23;20087;-76
2021/07/01 08:47:43;;;;;;;2.92;2.67;;;;;;;23.52;56.34;100600.69;6195253;23;20054;-77
2021/07/01 08:50:17;;;;;;;8.27;7.72;;;;;;;23.87;54.85;100601.06;6194008;23;20009;-76
2021/07/01 08:52:54;;;;;;;4.85;4.50;;;;;;;24.21;54.46;100604.44;6170235;23;20001;-75
2021/07/01 08:55:26;;;;;;;2.60;2.50;;;;;;;24.46;54.57;100593.16;6166482;23;20028;-76
2021/07/01 08:57:54;;;;;;;3.13;2.83;;;;;;;24.83;54.06;100604.16;6194730;23;20008;-76
2021/07/01 09:00:26;;;;;;;6.43;6.00;;;;;;;25.05;52.83;100599.13;6192625;23;20029;-76
2021/07/01 09:03:09;;;;;;;7.57;6.85;;;;;;;24.99;51.62;100589.38;6191799;23;20083;-75
2021/07/01 09:05:39;;;;;;;6.97;6.47;;;;;;;24.86;50.81;100605.44;6168344;23;20001;-75
2021/07/01 09:08:09;;;;;;;6.82;6.30;;;;;;;24.88;51.85;100603.91;6222363;23;20008;-76
2021/07/01 09:10:54;;;;;;;9.48;7.97;;;;;;;24.82;50.59;100605.31;6222691;23;20007;-75
2021/07/01 09:13:21;;;;;;;6.70;6.10;;;;;;;24.85;51.31;100601.00;6223441;23;20064;-75
2021/07/01 09:15:48;;;;;;;5.75;5.40;;;;;;;24.96;50.45;100604.09;6172285;23;20008;-76
2021/07/01 09:18:15;;;;;;;5.70;5.22;;;;;;;24.97;50.72;100592.53;6224818;23;20008;-74
2021/07/01 09:20:41;;;;;;;2.80;2.60;;;;;;;25.22;51.05;100606.34;6197946;23;20083;-75
2021/07/01 09:23:09;;;;;;;5.68;5.38;;;;;;;25.42;50.94;100604.47;6197233;23;20001;-73
2021/07/01 09:26:06;;;;;;;6.25;5.88;;;;;;;25.66;50.29;100608.22;6201502;23;20012;-81
2021/07/01 09:28:34;;;;;;;6.95;6.50;;;;;;;25.66;48.63;100597.03;6201545;23;20007;-80
2021/07/01 09:31:00;;;;;;;6.40;5.90;;;;;;;25.83;48.67;100607.81;6176043;23;20466;-75
2021/07/01 09:33:29;;;;;;;5.03;4.82;;;;;;;25.72;48.23;100590.75;6223325;23;20004;-75
2021/07/01 09:35:58;;;;;;;3.30;3.20;;;;;;;25.83;48.80;100602.22;6196534;23;20015;-75
2021/07/01 09:38:30;;;;;;;6.28;5.80;;;;;;;25.95;48.54;100616.09;6222931;23;20010;-75
2021/07/01 09:40:56;;;;;;;7.57;6.85;;;;;;;25.88;47.85;100604.72;6221912;23;20005;-75
2021/07/01 09:43:22;;;;;;;5.15;4.85;;;;;;;25.90;47.94;100602.34;6169879;23;20005;-75
2021/07/01 09:45:51;;;;;;;6.78;6.07;;;;;;;25.93;48.18;100589.63;6196090;23;20063;-76
2021/07/01 09:48:22;;;;;;;8.43;7.88;;;;;;;26.21;47.71;100611.88;6223483;23;20012;-75
2021/07/01 09:50:49;;;;;;;8.50;7.70;;;;;;;26.21;47.08;100599.84;6230297;23;20000;-75
2021/07/01 09:53:28;;;;;;;5.10;4.60;;;;;;;26.57;47.87;100612.56;6179385;23;20023;-75
2021/07/01 09:56:03;;;;;;;7.63;6.97;;;;;;;26.81;46.60;100610.66;6234039;23;20020;-75
2021/07/01 09:58:31;;;;;;;6.35;5.82;;;;;;;26.78;46.33;100600.16;6225495;23;20064;-76
2021/07/01 10:00:58;;;;;;;10.30;8.40;;;;;;;26.82;45.67;100612.25;6221290;23;20056;-75
2021/07/01 10:03:23;;;;;;;6.80;6.40;;;;;;;26.70;45.60;100604.84;6197112;23;20095;-75
2021/07/01 10:05:49;;;;;;;5.03;4.70;;;;;;;26.63;46.19;100599.06;6193939;23;20012;-76
2021/07/01 10:08:15;;;;;;;5.90;5.50;;;;;;;26.86;46.30;100601.94;6222983;23;20098;-75
2021/07/01 10:10:47;;;;;;;5.28;4.97;;;;;;;27.17;46.24;100605.66;6223261;23;20088;-76
2021/07/01 10:13:13;;;;;;;9.65;7.82;;;;;;;27.30;45.05;100609.88;6194229;23;20008;-76
2021/07/01 10:15:40;;;;;;;12.32;8.45;;;;;;;27.24;45.05;100605.78;6192379;23;20036;-75
2021/07/01 10:18:20;;;;;;;8.25;7.18;;;;;;;27.33;45.14;100606.34;6192728;23;20031;-75
2021/07/01 10:20:48;;;;;;;8.88;7.93;;;;;;;27.27;44.96;100599.41;6224794;23;20004;-76
2021/07/01 10:23:23;;;;;;;8.85;7.95;;;;;;;27.17;44.26;100614.09;6221411;23;20007;-75
2021/07/01 10:25:51;;;;;;;;;;;;;;;27.51;43.48;100608.63;6222699;23;20054;-75
2021/07/01 10:28:18;;;;;;;6.20;5.72;;;;;;;27.59;44.64;100599.13;6223860;23;19926;-76
2021/07/01 10:30:56;;;;;;;3.97;3.78;;;;;;;28.08;44.17;100605.06;6167832;23;20009;-76
2021/07/01 10:33:23;;;;;;;6.40;6.00;;;;;;;27.97;43.99;100596.47;6224028;23;20001;-75
2021/07/01 10:35:49;;;;;;;8.15;7.35;;;;;;;27.77;43.10;100605.00;6212385;23;20024;-75
2021/07/01 10:38:14;;;;;;;6.80;6.18;;;;;;;27.95;43.25;100605.28;6223818;23;20327;-76
2021/07/01 10:41:01;;;;;;;6.03;5.65;;;;;;;28.31;43.29;100602.94;6187664;23;20444;-76
2021/07/01 10:43:47;;;;;;;6.53;6.07;;;;;;;28.23;42.59;100604.06;6195298;23;20015;-76
2021/07/01 10:46:13;;;;;;;6.35;6.00;;;;;;;28.19;42.75;100603.19;6192978;23;20388;-76
2021/07/01 10:48:40;;;;;;;5.55;5.25;;;;;;;28.18;42.89;100595.94;6163269;23;20004;-75
2021/07/01 10:51:28;;;;;;;6.30;5.80;;;;;;;28.36;42.79;100594.16;6219306;23;20050;-75
2021/07/01 10:54:08;;;;;;;5.50;5.13;;;;;;;28.29;42.20;100580.03;6218035;23;20011;-72
2021/07/01 10:56:40;;;;;;;6.25;5.63;;;;;;;28.37;41.84;100587.34;6218983;23;20005;-76
2021/07/01 10:59:07;;;;;;;4.93;4.63;;;;;;;28.32;41.63;100584.88;6194424;23;20012;-76
2021/07/01 11:01:35;;;;;;;6.55;6.10;;;;;;;28.13;41.75;100571.00;6208124;23;20101;-77
2021/07/01 11:04:22;;;;;;;4.25;4.05;;;;;;;28.26;41.84;100586.41;6219522;23;20000;-76
2021/07/01 11:06:59;;;;;;;2.83;2.72;;;;;;;28.52;42.75;100581.88;6163745;23;20104;-76
2021/07/01 11:09:24;;;;;;;1.50;1.40;;;;;;;28.91;42.90;100587.09;6213749;23;20007;-76
2021/07/01 11:12:07;;;;;;;3.45;3.15;;;;;;;29.36;40.81;100579.47;6190917;23;20009;-74
2021/07/01 11:14:48;;;;;;;2.83;2.72;;;;;;;29.52;40.71;100575.56;6191599;23;20004;-77
2021/07/01 11:17:14;;;;;;;3.75;3.17;;;;;;;29.78;40.69;100589.38;6210607;23;20005;-75
2021/07/01 11:19:44;;;;;;;4.70;4.50;;;;;;;29.80;37.98;100591.00;6197897;23;20008;-76
2021/07/01 11:22:12;;;;;;;5.18;4.88;;;;;;;29.93;38.51;100589.50;6201873;23;20028;-76
2021/07/01 11:24:43;;;;;;;3.83;3.53;;;;;;;30.22;38.58;100572.72;6200310;23;20001;-76
2021/07/01 11:27:09;;;;;;;4.60;4.30;;;;;;;30.58;36.90;100589.78;6218725;23;20004;-76
2021/07/01 11:29:42;;;;;;;3.20;3.10;;;;;;;31.20;37.25;100585.00;6161287;23;20032;-76
2021/07/01 11:32:22;;;;;;;5.55;3.05;;;;;;;32.12;36.98;100577.56;6190735;23;20009;-76
2021/07/01 11:34:50;;;;;;;3.85;3.65;;;;;;;33.03;33.18;100589.16;6215366;23;20039;-74
2021/07/01 11:37:31;;;;;;;3.78;3.58;;;;;;;33.47;32.57;100567.75;6214737;23;20012;-76
2021/07/01 11:40:09;;;;;;;3.20;3.00;;;;;;;34.24;31.86;100569.28;6213271;23;20056;-76
2021/07/01 11:42:36;;;;;;;3.05;2.92;;;;;;;35.11;31.21;100576.53;6218346;23;20000;-75
2021/07/01 11:45:02;;;;;;;3.65;3.45;;;;;;;35.99;29.34;100571.66;6190878;23;20035;-76
2021/07/01 11:47:30;;;;;;;4.30;4.00;;;;;;;36.29;26.90;100569.84;6219598;23;20000;-77
2021/07/01 11:49:59;;;;;;;3.80;3.60;;;;;;;36.40;26.42;100569.56;6183273;23;20000;-74
2021/07/01 11:52:33;;;;;;;2.60;2.40;;;;;;;36.51;27.50;100570.13;6192040;23;20001;-76
2021/07/01 11:54:59;;;;;;;;;;;;;;;36.74;25.52;100574.06;6193999;23;20008;-76
2021/07/01 11:57:30;;;;;;;2.17;2.08;;;;;;;36.81;27.26;100553.97;6217299;23;19908;-74
2021/07/01 11:59:57;;;;;;;2.17;2.08;;;;;;;37.89;25.92;100556.81;6192289;23;20094;-75
2021/07/01 12:02:25;;;;;;;2.70;2.60;;;;;;;38.61;23.63;100560.34;6163782;23;20083;-76